createdAt,value
2018-06-03T00:00:40.636Z,94.35
2018-06-03T00:01:40.647Z,95.21
2018-06-03T00:02:40.649Z,94.83
2018-06-03T00:03:40.657Z,94.69
2018-06-03T00:04:40.648Z,94.83
2018-06-03T00:05:42.884Z,95.17
2018-06-03T00:06:40.674Z,94.98
2018-06-03T00:07:40.928Z,93.87
2018-06-03T00:08:40.885Z,94.45
2018-06-03T00:09:40.443Z,94.35
2018-06-03T00:10:40.915Z,93.77
2018-06-03T00:11:40.933Z,94.26
2018-06-03T00:12:40.675Z,94.54
2018-06-03T00:13:40.907Z,94.59
2018-06-03T00:14:40.905Z,94.83
2018-06-03T00:15:40.991Z,94.98
2018-06-03T00:16:40.712Z,94.78
2018-06-03T00:17:40.911Z,94.88
2018-06-03T00:18:40.716Z,95.45
2018-06-03T00:19:40.894Z,95.55
2018-06-03T00:20:40.751Z,95.65
2018-06-03T00:21:40.891Z,95.36
2018-06-03T00:22:40.717Z,95.65
2018-06-03T00:23:40.662Z,95.55
2018-06-03T00:24:40.291Z,96.03
2018-06-03T00:25:41.244Z,96.22
2018-06-03T00:26:40.908Z,96.03
2018-06-03T00:27:40.718Z,96.32
2018-06-03T00:28:40.913Z,96.61
2018-06-03T00:29:40.908Z,96.61
2018-06-03T00:30:40.913Z,96.22
2018-06-03T00:31:40.621Z,95.94
2018-06-03T00:32:40.681Z,96.22
2018-06-03T00:33:40.909Z,96.70
2018-06-03T00:34:41.413Z,96.89
2018-06-03T00:35:40.888Z,97.14
2018-06-03T00:36:40.657Z,97.61
2018-06-03T00:37:40.908Z,98.10
2018-06-03T00:38:40.904Z,97.42
2018-06-03T00:39:40.670Z,98.10
2018-06-03T00:40:40.695Z,98.19
2018-06-03T00:41:40.889Z,97.14
2018-06-03T00:42:40.667Z,97.28
2018-06-03T00:43:40.886Z,97.33
2018-06-03T00:44:40.702Z,97.61
2018-06-03T00:45:40.677Z,97.57
2018-06-03T00:46:40.687Z,97.19
2018-06-03T00:47:40.714Z,96.99
2018-06-03T00:48:40.724Z,97.28
2018-06-03T00:49:40.694Z,97.76
2018-06-03T00:50:40.719Z,96.80
2018-06-03T00:51:40.690Z,98.24
2018-06-03T00:52:40.720Z,97.66
2018-06-03T00:53:40.672Z,97.86
2018-06-03T00:54:40.723Z,97.76
2018-06-03T00:55:40.652Z,97.76
2018-06-03T00:56:40.659Z,97.19
2018-06-03T00:57:40.913Z,96.70
2018-06-03T00:58:40.649Z,96.99
2018-06-03T00:59:40.914Z,96.32
2018-06-03T01:00:40.664Z,96.32
2018-06-03T01:01:40.662Z,96.42
2018-06-03T01:02:40.667Z,96.99
2018-06-03T01:03:40.663Z,96.42
2018-06-03T01:04:42.440Z,96.42
2018-06-03T01:05:40.913Z,97.09
2018-06-03T01:06:40.667Z,96.70
2018-06-03T01:07:40.915Z,96.56
2018-06-03T01:08:40.651Z,97.47
2018-06-03T01:09:40.679Z,96.89
2018-06-03T01:10:40.915Z,96.61
2018-06-03T01:11:40.670Z,96.61
2018-06-03T01:12:40.922Z,96.08
2018-06-03T01:13:40.695Z,95.89
2018-06-03T01:14:40.642Z,95.60
2018-06-03T01:15:40.665Z,95.79
2018-06-03T01:16:40.693Z,95.94
2018-06-03T01:17:40.683Z,96.08
2018-06-03T01:18:40.652Z,95.70
2018-06-03T01:19:40.692Z,95.98
2018-06-03T01:20:40.694Z,96.70
2018-06-03T01:21:40.690Z,95.98
2018-06-03T01:22:40.693Z,96.89
2018-06-03T01:23:40.681Z,96.56
2018-06-03T01:24:40.681Z,96.47
2018-06-03T01:25:40.685Z,97.04
2018-06-03T01:26:40.712Z,95.79
2018-06-03T01:27:40.696Z,95.94
2018-06-03T01:28:40.713Z,95.60
2018-06-03T01:29:40.927Z,96.03
2018-06-03T01:30:42.499Z,96.13
2018-06-03T01:31:40.663Z,96.03
2018-06-03T01:32:40.925Z,96.61
2018-06-03T01:33:40.659Z,96.89
2018-06-03T01:34:40.930Z,95.94
2018-06-03T01:35:40.668Z,96.32
2018-06-03T01:36:40.927Z,96.51
2018-06-03T01:37:40.715Z,96.03
2018-06-03T01:38:40.697Z,95.89
2018-06-03T01:39:40.672Z,96.27
2018-06-03T01:40:40.686Z,95.89
2018-06-03T01:41:40.675Z,95.50
2018-06-03T01:42:42.451Z,95.60
2018-06-03T01:43:42.727Z,95.70
2018-06-03T01:44:40.713Z,95.03
2018-06-03T01:45:40.717Z,95.60
2018-06-03T01:46:40.709Z,95.98
2018-06-03T01:47:40.722Z,95.60
2018-06-03T01:48:40.712Z,95.79
2018-06-03T01:49:40.713Z,95.70
2018-06-03T01:50:40.670Z,95.40
2018-06-03T01:51:40.714Z,95.03
2018-06-03T01:52:42.734Z,94.73
2018-06-03T01:53:40.659Z,95.03
2018-06-03T01:54:42.642Z,94.64
2018-06-03T01:55:40.662Z,95.31
2018-06-03T01:56:40.718Z,95.03
2018-06-03T01:57:40.686Z,94.54
2018-06-03T01:58:40.658Z,94.54
2018-06-03T01:59:40.671Z,94.54
2018-06-03T02:00:42.952Z,94.73
2018-06-03T02:01:40.701Z,94.64
2018-06-03T02:02:40.757Z,94.64
2018-06-03T02:03:40.707Z,94.83
2018-06-03T02:04:42.711Z,95.21
2018-06-03T02:05:40.716Z,94.45
2018-06-03T02:06:41.698Z,94.54
2018-06-03T02:07:40.723Z,94.45
2018-06-03T02:08:42.492Z,94.64
2018-06-03T02:09:40.716Z,94.83
2018-06-03T02:10:40.739Z,94.93
2018-06-03T02:11:40.709Z,95.21
2018-06-03T02:12:40.737Z,94.73
2018-06-03T02:13:40.713Z,95.21
2018-06-03T02:14:40.722Z,95.40
2018-06-03T02:15:40.732Z,95.03
2018-06-03T02:16:40.740Z,95.12
2018-06-03T02:17:40.724Z,94.45
2018-06-03T02:18:40.769Z,94.73
2018-06-03T02:19:40.757Z,95.03
2018-06-03T02:20:40.753Z,95.21
2018-06-03T02:21:40.748Z,95.21
2018-06-03T02:22:40.713Z,95.21
2018-06-03T02:23:40.710Z,95.21
2018-06-03T02:24:40.711Z,94.64
2018-06-03T02:25:40.711Z,95.03
2018-06-03T02:26:40.712Z,94.35
2018-06-03T02:27:40.723Z,94.35
2018-06-03T02:28:41.707Z,94.26
2018-06-03T02:29:42.745Z,94.64
2018-06-03T02:30:40.742Z,95.21
2018-06-03T02:31:40.768Z,95.12
2018-06-03T02:32:40.180Z,95.12
2018-06-03T02:33:40.738Z,95.60
2018-06-03T02:34:40.725Z,95.21
2018-06-03T02:35:42.716Z,95.12
2018-06-03T02:36:40.719Z,95.70
2018-06-03T02:37:40.708Z,94.93
2018-06-03T02:38:40.740Z,95.03
2018-06-03T02:39:40.749Z,95.03
2018-06-03T02:40:40.767Z,94.73
2018-06-03T02:41:40.775Z,95.21
2018-06-03T02:42:40.753Z,94.93
2018-06-03T02:43:40.733Z,95.60
2018-06-03T02:44:40.740Z,95.31
2018-06-03T02:45:40.713Z,95.60
2018-06-03T02:46:40.693Z,95.31
2018-06-03T02:47:40.696Z,95.40
2018-06-03T02:48:40.714Z,95.60
2018-06-03T02:49:41.721Z,95.31
2018-06-03T02:50:40.725Z,95.98
2018-06-03T02:51:40.723Z,95.70
2018-06-03T02:52:40.718Z,95.60
2018-06-03T02:53:40.728Z,95.60
2018-06-03T02:54:40.744Z,95.79
2018-06-03T02:55:40.702Z,96.37
2018-06-03T02:56:40.743Z,95.70
2018-06-03T02:57:40.689Z,96.08
2018-06-03T02:58:40.743Z,95.89
2018-06-03T02:59:40.723Z,96.08
2018-06-03T03:00:40.741Z,95.89
2018-06-03T03:01:40.744Z,96.66
2018-06-03T03:02:40.729Z,96.47
2018-06-03T03:03:40.732Z,96.89
2018-06-03T03:04:40.743Z,97.04
2018-06-03T03:05:40.742Z,96.66
2018-06-03T03:06:40.794Z,96.75
2018-06-03T03:07:40.757Z,96.94
2018-06-03T03:08:40.797Z,96.85
2018-06-03T03:09:40.759Z,97.24
2018-06-03T03:10:40.752Z,97.66
2018-06-03T03:11:40.791Z,97.04
2018-06-03T03:12:40.797Z,96.75
2018-06-03T03:13:40.760Z,96.85
2018-06-03T03:14:40.713Z,96.75
2018-06-03T03:15:40.717Z,97.04
2018-06-03T03:16:40.710Z,96.66
2018-06-03T03:17:40.720Z,96.47
2018-06-03T03:18:40.738Z,96.47
2018-06-03T03:19:40.698Z,96.75
2018-06-03T03:20:40.674Z,97.04
2018-06-03T03:21:40.731Z,96.94
2018-06-03T03:22:40.963Z,96.94
2018-06-03T03:23:40.724Z,96.47
2018-06-03T03:24:40.733Z,97.52
2018-06-03T03:25:40.737Z,96.94
2018-06-03T03:26:40.739Z,96.75
2018-06-03T03:27:40.199Z,96.47
2018-06-03T03:28:40.184Z,96.85
2018-06-03T03:29:40.740Z,96.56
2018-06-03T03:30:40.744Z,97.33
2018-06-03T03:31:40.765Z,97.24
2018-06-03T03:32:40.744Z,96.66
2018-06-03T03:33:40.745Z,97.04
2018-06-03T03:34:40.737Z,96.08
2018-06-03T03:35:40.758Z,96.37
2018-06-03T03:36:40.744Z,96.37
2018-06-03T03:37:42.789Z,96.56
2018-06-03T03:38:40.744Z,97.42
2018-06-03T03:39:47.001Z,97.09
2018-06-03T03:40:41.746Z,97.52
2018-06-03T03:41:40.697Z,97.28
2018-06-03T03:42:40.685Z,97.96
2018-06-03T03:43:40.736Z,97.57
2018-06-03T03:44:46.721Z,97.47
2018-06-03T03:45:40.711Z,97.81
2018-06-03T03:46:40.750Z,97.14
2018-06-03T03:47:40.755Z,97.04
2018-06-03T03:48:40.724Z,96.75
2018-06-03T03:50:40.751Z,96.75
2018-06-03T03:51:40.738Z,96.47
2018-06-03T03:52:40.744Z,96.27
2018-06-03T03:53:40.965Z,95.98
2018-06-03T03:54:40.758Z,95.70
2018-06-03T03:55:40.746Z,96.37
2018-06-03T03:56:40.754Z,96.27
2018-06-03T03:57:40.733Z,97.24
2018-06-03T03:58:40.736Z,96.75
2018-06-03T03:59:40.804Z,96.47
2018-06-03T04:00:40.827Z,95.89
2018-06-03T04:01:42.576Z,96.66
2018-06-03T04:02:40.992Z,96.66
2018-06-03T04:03:40.994Z,96.75
2018-06-03T04:04:40.959Z,96.56
2018-06-03T04:06:40.993Z,96.94
2018-06-03T04:07:40.965Z,97.24
2018-06-03T04:08:40.240Z,97.04
2018-06-03T04:09:40.766Z,96.37
2018-06-03T04:10:40.716Z,96.08
2018-06-03T04:11:43.077Z,96.94
2018-06-03T04:12:40.706Z,96.75
2018-06-03T04:13:40.746Z,96.47
2018-06-03T04:14:40.749Z,96.85
2018-06-03T04:15:40.698Z,96.47
2018-06-03T04:16:40.742Z,96.47
2018-06-03T04:17:40.750Z,96.66
2018-06-03T04:18:40.790Z,96.56
2018-06-03T04:19:40.764Z,96.85
2018-06-03T04:20:40.763Z,96.47
2018-06-03T04:21:40.742Z,96.75
2018-06-03T04:22:40.763Z,96.37
2018-06-03T04:23:40.778Z,96.08
2018-06-03T04:24:41.189Z,96.08
2018-06-03T04:25:40.767Z,96.17
2018-06-03T04:26:40.788Z,95.65
2018-06-03T04:27:40.758Z,96.13
2018-06-03T04:28:40.747Z,96.13
2018-06-03T04:29:40.756Z,95.75
2018-06-03T04:30:40.751Z,95.98
2018-06-03T04:31:54.052Z,95.84
2018-06-03T04:32:40.816Z,95.79
2018-06-03T04:33:40.817Z,96.08
2018-06-03T04:34:40.794Z,95.89
2018-06-03T04:35:40.815Z,96.17
2018-06-03T04:36:40.795Z,96.22
2018-06-03T04:37:40.765Z,96.08
2018-06-03T04:38:40.748Z,96.08
2018-06-03T04:39:40.744Z,96.70
2018-06-03T04:40:40.732Z,96.85
2018-06-03T04:41:40.771Z,96.56
2018-06-03T04:42:40.759Z,96.47
2018-06-03T04:43:40.778Z,96.75
2018-06-03T04:44:54.440Z,96.94
2018-06-03T04:45:40.747Z,97.04
2018-06-03T04:46:40.775Z,97.71
2018-06-03T04:47:41.034Z,97.24
2018-06-03T04:48:40.798Z,96.75
2018-06-03T04:49:40.832Z,96.85
2018-06-03T04:50:40.744Z,96.90
2018-06-03T04:51:41.755Z,96.42
2018-06-03T04:52:40.810Z,96.51
2018-06-03T04:53:42.612Z,96.32
2018-06-03T04:54:40.772Z,95.55
2018-06-03T04:55:40.729Z,95.55
2018-06-03T04:56:40.739Z,95.45
2018-06-03T04:57:42.534Z,96.13
2018-06-03T04:58:42.491Z,96.13
2018-06-03T04:59:40.808Z,96.66
2018-06-03T05:00:40.819Z,96.85
2018-06-03T05:01:40.811Z,96.61
2018-06-03T05:02:40.823Z,96.80
2018-06-03T05:03:40.800Z,96.51
2018-06-03T05:04:41.028Z,97.04
2018-06-03T05:05:41.068Z,97.04
2018-06-03T05:06:40.832Z,97.52
2018-06-03T05:07:40.738Z,97.42
2018-06-03T05:08:40.758Z,97.24
2018-06-03T05:09:46.746Z,97.28
2018-06-03T05:10:40.209Z,97.28
2018-06-03T05:11:40.279Z,96.70
2018-06-03T05:12:42.541Z,96.90
2018-06-03T05:13:40.780Z,96.99
2018-06-03T05:14:40.769Z,96.90
2018-06-03T05:15:40.776Z,97.28
2018-06-03T05:16:40.790Z,96.70
2018-06-03T05:17:40.782Z,95.94
2018-06-03T05:18:40.780Z,96.32
2018-06-03T05:19:41.029Z,96.22
2018-06-03T05:20:40.340Z,96.22
2018-06-03T05:21:40.801Z,97.09
2018-06-03T05:22:42.585Z,97.09
2018-06-03T05:23:40.806Z,96.90
2018-06-03T05:24:40.794Z,96.13
2018-06-03T05:25:40.802Z,96.70
2018-06-03T05:26:40.795Z,96.03
2018-06-03T05:27:40.789Z,95.94
2018-06-03T05:28:40.810Z,94.88
2018-06-03T05:29:40.802Z,95.31
2018-06-03T05:30:40.831Z,95.55
2018-06-03T05:31:40.816Z,95.07
2018-06-03T05:32:40.733Z,95.75
2018-06-03T05:34:07.780Z,95.12
2018-06-03T05:34:40.741Z,95.94
2018-06-03T05:35:40.752Z,95.50
2018-06-03T05:36:40.746Z,95.02
2018-06-03T05:37:40.747Z,95.50
2018-06-03T05:38:40.736Z,95.89
2018-06-03T05:39:41.773Z,95.65
2018-06-03T05:40:41.036Z,96.51
2018-06-03T05:41:40.801Z,96.99
2018-06-03T05:42:40.822Z,96.70
2018-06-03T05:43:40.779Z,95.75
2018-06-03T05:44:40.809Z,95.31
2018-06-03T05:45:40.782Z,95.70
2018-06-03T05:46:40.812Z,95.50
2018-06-03T05:47:40.812Z,95.70
2018-06-03T05:48:42.638Z,95.21
2018-06-03T05:49:40.821Z,95.31
2018-06-03T05:50:40.826Z,95.12
2018-06-03T05:51:40.842Z,94.92
2018-06-03T05:52:40.349Z,95.12
2018-06-03T05:53:40.822Z,95.21
2018-06-03T05:54:40.810Z,94.83
2018-06-03T05:55:40.880Z,95.12
2018-06-03T05:56:40.824Z,94.35
2018-06-03T05:57:42.650Z,94.49
2018-06-03T05:58:40.875Z,94.87
2018-06-03T05:59:40.415Z,94.73
2018-06-03T06:00:40.338Z,94.20
2018-06-03T06:01:40.824Z,93.53
2018-06-03T06:02:40.801Z,93.82
2018-06-03T06:03:40.769Z,93.62
2018-06-03T06:04:40.812Z,93.62
2018-06-03T06:05:42.817Z,93.72
2018-06-03T06:06:40.815Z,94.20
2018-06-03T06:07:40.808Z,95.02
2018-06-03T06:08:41.001Z,94.78
2018-06-03T06:09:40.869Z,94.35
2018-06-03T06:10:40.802Z,94.78
2018-06-03T06:11:40.902Z,94.49
2018-06-03T06:12:47.814Z,93.91
2018-06-03T06:13:40.816Z,94.20
2018-06-03T06:14:40.883Z,94.78
2018-06-03T06:15:40.820Z,94.68
2018-06-03T06:16:40.798Z,94.20
2018-06-03T06:17:40.921Z,93.53
2018-06-03T06:18:40.796Z,93.72
2018-06-03T06:19:40.806Z,92.66
2018-06-03T06:20:40.828Z,92.80
2018-06-03T06:21:40.826Z,92.66
2018-06-03T06:22:40.420Z,92.47
2018-06-03T06:23:47.075Z,92.85
2018-06-03T06:24:40.427Z,92.71
2018-06-03T06:25:40.814Z,92.08
2018-06-03T06:26:41.010Z,91.65
2018-06-03T06:27:40.833Z,91.65
2018-06-03T06:28:40.895Z,91.60
2018-06-03T06:29:43.028Z,91.84
2018-06-03T06:30:40.866Z,91.17
2018-06-03T06:31:40.777Z,91.80
2018-06-03T06:32:40.791Z,91.17
2018-06-03T06:33:40.786Z,90.40
2018-06-03T06:34:40.802Z,90.59
2018-06-03T06:35:40.809Z,89.53
2018-06-03T06:36:40.350Z,89.15
2018-06-03T06:37:40.884Z,89.15
2018-06-03T06:38:40.830Z,87.99
2018-06-03T06:39:40.889Z,88.04
2018-06-03T06:40:41.100Z,87.94
2018-06-03T06:41:40.835Z,87.26
2018-06-03T06:42:40.814Z,87.17
2018-06-03T06:43:41.018Z,86.49
2018-06-03T06:44:41.598Z,85.24
2018-06-03T06:45:40.823Z,85.43
2018-06-03T06:46:40.863Z,86.11
2018-06-03T06:47:40.814Z,85.82
2018-06-03T06:48:47.032Z,85.53
2018-06-03T06:49:40.822Z,85.49
2018-06-03T06:50:40.919Z,86.01
2018-06-03T06:51:40.426Z,85.72
2018-06-03T06:52:42.660Z,86.11
2018-06-03T06:53:40.862Z,85.91
2018-06-03T06:54:40.872Z,85.34
2018-06-03T06:55:40.836Z,85.14
2018-06-03T06:56:40.850Z,85.05
2018-06-03T06:57:40.823Z,85.63
2018-06-03T06:58:40.833Z,85.24
2018-06-03T06:59:40.855Z,84.95
2018-06-03T07:00:40.852Z,84.18
2018-06-03T07:01:40.816Z,83.80
2018-06-03T07:02:40.821Z,84.47
2018-06-03T07:03:40.807Z,84.56
2018-06-03T07:04:40.823Z,84.76
2018-06-03T07:05:43.845Z,84.18
2018-06-03T07:06:40.565Z,83.99
2018-06-03T07:07:41.033Z,84.09
2018-06-03T07:08:41.068Z,83.89
2018-06-03T07:09:41.083Z,83.99
2018-06-03T07:10:40.784Z,84.28
2018-06-03T07:11:40.841Z,84.12
2018-06-03T07:12:40.830Z,84.03
2018-06-03T07:13:41.811Z,84.12
2018-06-03T07:14:40.851Z,83.55
2018-06-03T07:15:40.814Z,83.45
2018-06-03T07:16:40.851Z,82.87
2018-06-03T07:17:40.872Z,82.87
2018-06-03T07:18:40.851Z,82.68
2018-06-03T07:19:40.817Z,82.29
2018-06-03T07:20:40.886Z,81.04
2018-06-03T07:21:40.826Z,80.85
2018-06-03T07:22:40.882Z,81.24
2018-06-03T07:23:40.881Z,81.43
2018-06-03T07:24:40.874Z,81.43
2018-06-03T07:25:40.868Z,81.72
2018-06-03T07:26:40.849Z,81.62
2018-06-03T07:27:40.885Z,81.81
2018-06-03T07:28:40.830Z,81.43
2018-06-03T07:29:40.819Z,81.43
2018-06-03T07:30:42.867Z,80.37
2018-06-03T07:31:40.430Z,80.27
2018-06-03T07:32:40.835Z,79.89
2018-06-03T07:33:43.396Z,79.98
2018-06-03T07:34:40.828Z,79.79
2018-06-03T07:35:40.856Z,79.79
2018-06-03T07:36:40.867Z,80.37
2018-06-03T07:37:40.857Z,79.98
2018-06-03T07:38:40.887Z,79.93
2018-06-03T07:39:40.855Z,80.02
2018-06-03T07:40:40.826Z,81.43
2018-06-03T07:41:40.850Z,81.52
2018-06-03T07:42:40.852Z,81.04
2018-06-03T07:43:49.650Z,80.43
2018-06-03T07:44:40.907Z,81.14
2018-06-03T07:45:40.900Z,80.46
2018-06-03T07:46:41.140Z,80.27
2018-06-03T07:47:40.998Z,80.76
2018-06-03T07:48:40.891Z,80.85
2018-06-03T07:49:40.899Z,79.79
2018-06-03T07:50:40.900Z,80.46
2018-06-03T07:51:40.873Z,80.66
2018-06-03T07:52:40.904Z,80.08
2018-06-03T07:53:41.900Z,80.85
2018-06-03T07:54:40.912Z,80.66
2018-06-03T07:55:40.927Z,80.12
2018-06-03T07:56:40.899Z,79.44
2018-06-03T07:57:41.055Z,79.93
2018-06-03T07:58:40.874Z,80.12
2018-06-03T07:59:40.847Z,79.93
2018-06-03T08:00:41.098Z,80.31
2018-06-03T08:01:40.903Z,80.02
2018-06-03T08:02:40.918Z,80.02
2018-06-03T08:03:41.413Z,80.46
2018-06-03T08:04:40.842Z,80.60
2018-06-03T08:05:41.405Z,80.22
2018-06-03T08:06:40.554Z,79.93
2018-06-03T08:07:41.128Z,80.66
2018-06-03T08:08:42.353Z,80.31
2018-06-03T08:09:41.111Z,80.66
2018-06-03T08:10:41.000Z,80.69
2018-06-03T08:11:40.912Z,80.51
2018-06-03T08:12:40.983Z,80.69
2018-06-03T08:13:41.009Z,80.12
2018-06-03T08:14:41.029Z,80.02
2018-06-03T08:15:41.036Z,80.51
2018-06-03T08:16:41.039Z,80.02
2018-06-03T08:17:40.998Z,80.60
2018-06-03T08:18:41.020Z,80.31
2018-06-03T08:19:41.026Z,80.41
2018-06-03T08:20:40.991Z,79.54
2018-06-03T08:21:40.899Z,79.64
2018-06-03T08:22:40.850Z,80.12
2018-06-03T08:23:41.872Z,80.27
2018-06-03T08:24:40.902Z,80.37
2018-06-03T08:25:40.942Z,80.94
2018-06-03T08:26:40.606Z,80.18
2018-06-03T08:27:40.847Z,80.56
2018-06-03T08:28:43.601Z,80.46
2018-06-03T08:29:41.109Z,80.85
2018-06-03T08:30:40.614Z,80.85
2018-06-03T08:31:41.423Z,80.56
2018-06-03T08:32:41.592Z,80.85
2018-06-03T08:33:40.871Z,80.66
2018-06-03T08:34:43.106Z,81.14
2018-06-03T08:35:40.948Z,82.01
2018-06-03T08:36:40.906Z,81.62
2018-06-03T08:37:41.063Z,82.26
2018-06-03T08:38:40.528Z,82.49
2018-06-03T08:39:40.894Z,82.39
2018-06-03T08:40:40.930Z,82.97
2018-06-03T08:41:41.071Z,82.68
2018-06-03T08:42:41.012Z,82.59
2018-06-03T08:43:41.037Z,82.49
2018-06-03T08:44:43.487Z,82.59
2018-06-03T08:45:42.890Z,82.49
2018-06-03T08:46:43.151Z,82.68
2018-06-03T08:47:41.118Z,83.16
2018-06-03T08:48:41.035Z,82.59
2018-06-03T08:49:41.449Z,81.52
2018-06-03T08:50:41.074Z,81.14
2018-06-03T08:51:41.120Z,81.24
2018-06-03T08:52:41.613Z,81.81
2018-06-03T08:53:41.033Z,81.14
2018-06-03T08:54:41.045Z,81.24
2018-06-03T08:55:41.074Z,80.94
2018-06-03T08:56:41.114Z,80.85
2018-06-03T08:57:41.068Z,81.24
2018-06-03T08:58:40.939Z,81.58
2018-06-03T08:59:40.998Z,81.68
2018-06-03T09:00:40.898Z,81.96
2018-06-03T09:01:40.964Z,81.81
2018-06-03T09:02:40.929Z,82.20
2018-06-03T09:03:40.955Z,81.04
2018-06-03T09:04:41.084Z,80.27
2018-06-03T09:05:41.405Z,80.46
2018-06-03T09:06:41.059Z,80.66
2018-06-03T09:07:41.292Z,80.66
2018-06-03T09:08:41.093Z,81.81
2018-06-03T09:09:41.425Z,81.77
2018-06-03T09:10:43.075Z,81.39
2018-06-03T09:11:41.582Z,81.91
2018-06-03T09:12:41.601Z,81.96
2018-06-03T09:13:41.389Z,82.16
2018-06-03T09:14:41.678Z,83.41
2018-06-03T09:15:40.720Z,83.51
2018-06-03T09:16:41.395Z,83.61
2018-06-03T09:17:43.580Z,83.51
2018-06-03T09:18:41.699Z,83.75
2018-06-03T09:19:41.388Z,83.89
2018-06-03T09:20:41.667Z,83.80
2018-06-03T09:21:41.332Z,83.70
2018-06-03T09:22:41.330Z,84.05
2018-06-03T09:23:41.301Z,84.14
2018-06-03T09:24:41.375Z,83.85
2018-06-03T09:25:41.367Z,83.80
2018-06-03T09:26:41.373Z,84.09
2018-06-03T09:27:41.373Z,83.31
2018-06-03T09:28:41.372Z,83.22
2018-06-03T09:29:41.389Z,82.74
2018-06-03T09:30:41.338Z,82.35
2018-06-03T09:31:41.355Z,82.59
2018-06-03T09:32:41.360Z,81.81
2018-06-03T09:33:41.382Z,80.94
2018-06-03T09:34:41.671Z,79.41
2018-06-03T09:35:41.128Z,78.83
2018-06-03T09:36:41.593Z,77.81
2018-06-03T09:37:41.416Z,77.71
2018-06-03T09:38:41.415Z,77.51
2018-06-03T09:39:41.433Z,77.07
2018-06-03T09:40:41.723Z,76.59
2018-06-03T09:41:41.460Z,76.40
2018-06-03T09:42:41.376Z,76.10
2018-06-03T09:43:41.133Z,75.62
2018-06-03T09:44:41.470Z,75.43
2018-06-03T09:45:41.381Z,74.89
2018-06-03T09:46:45.085Z,74.57
2018-06-03T09:47:41.439Z,73.79
2018-06-03T09:48:41.356Z,73.54
2018-06-03T09:49:41.384Z,73.63
2018-06-03T09:50:41.379Z,73.28
2018-06-03T09:51:41.364Z,73.48
2018-06-03T09:52:50.308Z,72.90
2018-06-03T09:53:41.341Z,73.44
2018-06-03T09:54:41.340Z,73.54
2018-06-03T09:55:41.638Z,72.52
2018-06-03T09:56:41.492Z,71.84
2018-06-03T09:57:41.697Z,72.42
2018-06-03T09:58:41.877Z,72.71
2018-06-03T10:01:45.789Z,72.45
2018-06-03T10:03:13.031Z,71.39
2018-06-03T10:07:58.157Z,70.39
2018-06-03T10:09:58.581Z,70.42
2018-06-03T10:10:54.854Z,70.72
2018-06-03T10:12:45.734Z,70.52
2018-06-03T10:13:45.507Z,69.68
2018-06-03T10:15:40.677Z,70.17
2018-06-03T10:16:40.684Z,69.98
2018-06-03T10:18:34.294Z,70.72
2018-06-03T10:19:34.853Z,70.52
2018-06-03T10:21:28.488Z,71.39
2018-06-03T10:22:28.718Z,72.06
2018-06-03T10:24:22.900Z,72.61
2018-06-03T10:25:22.901Z,72.03
2018-06-03T10:27:17.084Z,71.00
2018-06-03T10:29:31.409Z,70.87
2018-06-03T10:30:31.875Z,71.97
2018-06-03T10:31:31.808Z,71.30
2018-06-03T10:32:31.884Z,70.26
2018-06-03T10:33:32.060Z,70.14
2018-06-03T10:34:31.627Z,70.17
2018-06-03T10:35:33.796Z,69.14
2018-06-03T10:36:31.570Z,68.46
2018-06-03T10:38:26.037Z,68.27
2018-06-03T10:41:20.277Z,67.17
2018-06-03T10:42:20.544Z,67.01
2018-06-03T10:44:14.612Z,65.85
2018-06-03T10:45:14.716Z,65.66
2018-06-03T10:47:08.523Z,66.20
2018-06-03T10:48:08.866Z,67.04
2018-06-03T10:50:03.792Z,65.92
2018-06-03T10:51:03.552Z,66.14
2018-06-03T10:52:03.615Z,65.95
2018-06-03T10:53:09.845Z,65.88
2018-06-03T10:54:03.288Z,65.37
2018-06-03T10:55:03.869Z,64.69
2018-06-03T10:56:03.582Z,64.72
2018-06-03T10:57:03.567Z,64.24
2018-06-03T10:58:03.652Z,64.72
2018-06-03T10:59:03.775Z,65.20
2018-06-03T11:00:03.697Z,64.72
2018-06-03T11:01:03.663Z,65.27
2018-06-03T11:02:03.826Z,65.24
2018-06-03T11:03:03.850Z,65.56
2018-06-03T11:04:03.620Z,64.98
2018-06-03T11:05:03.205Z,65.17
2018-06-03T11:07:03.259Z,64.98
2018-06-03T11:08:03.757Z,65.17
2018-06-03T11:09:03.606Z,65.11
2018-06-03T11:10:03.262Z,65.59
2018-06-03T11:11:05.780Z,65.30
2018-06-03T11:12:07.625Z,65.50
2018-06-03T11:13:07.382Z,66.08
2018-06-03T11:14:03.657Z,65.50
2018-06-03T11:15:04.246Z,63.66
2018-06-03T11:16:03.758Z,63.66
2018-06-03T11:17:04.101Z,62.30
2018-06-03T11:18:03.674Z,62.30
2018-06-03T11:19:03.674Z,62.24
2018-06-03T11:20:03.640Z,62.14
2018-06-03T11:21:12.505Z,62.69
2018-06-03T11:22:03.650Z,62.43
2018-06-03T11:23:10.005Z,61.95
2018-06-03T11:26:01.505Z,61.21
2018-06-03T11:28:14.118Z,60.04
2018-06-03T11:28:52.540Z,59.36
2018-06-03T11:30:48.455Z,59.46
2018-06-03T11:31:46.033Z,59.07
2018-06-03T11:33:48.373Z,58.23
2018-06-03T11:36:36.381Z,58.78
2018-06-03T11:37:19.947Z,59.36
2018-06-03T11:38:12.583Z,58.72
2018-06-03T11:39:20.684Z,59.10
2018-06-03T11:39:57.643Z,59.69
2018-06-03T11:40:57.403Z,59.71
2018-06-03T11:41:57.555Z,58.65
2018-06-03T11:42:59.206Z,58.45
2018-06-03T11:43:57.129Z,57.78
2018-06-03T11:44:56.988Z,58.74
2018-06-03T11:45:57.379Z,57.68
2018-06-03T11:46:57.422Z,57.87
2018-06-03T11:47:57.452Z,57.12
2018-06-03T11:48:57.091Z,54.70
2018-06-03T11:49:57.074Z,53.85
2018-06-03T11:50:57.107Z,53.47
2018-06-03T11:51:57.040Z,53.95
2018-06-03T11:52:57.615Z,54.14
2018-06-03T11:53:56.725Z,54.72
2018-06-03T11:54:57.052Z,55.50
2018-06-03T11:55:57.412Z,55.83
2018-06-03T11:56:57.422Z,57.32
2018-06-03T11:57:57.324Z,57.09
2018-06-03T11:58:57.068Z,56.45
2018-06-03T11:59:57.381Z,55.67
2018-06-03T12:00:57.655Z,55.31
2018-06-03T12:01:58.302Z,54.82
2018-06-03T12:02:57.922Z,55.02
2018-06-03T12:03:57.575Z,54.53
2018-06-03T12:04:58.086Z,54.94
2018-06-03T12:05:57.415Z,53.91
2018-06-03T12:06:57.475Z,53.59
2018-06-03T12:07:57.400Z,52.84
2018-06-03T12:08:57.376Z,52.81
2018-06-03T12:09:57.576Z,52.45
2018-06-03T12:10:57.571Z,52.25
2018-06-03T12:11:57.571Z,52.86
2018-06-03T12:12:57.538Z,52.37
2018-06-03T12:13:57.487Z,52.28
2018-06-03T12:14:57.924Z,52.76
2018-06-03T12:15:57.212Z,52.72
2018-06-03T12:18:29.963Z,52.19
2018-06-03T12:19:30.562Z,51.50
2018-06-03T12:27:02.868Z,53.67
2018-06-03T12:30:10.432Z,54.42
2018-06-03T12:32:25.931Z,53.54
2018-06-03T12:34:38.883Z,53.77
2018-06-03T12:35:39.165Z,52.14
2018-06-03T12:37:33.941Z,52.53
2018-06-03T12:38:33.916Z,52.01
2018-06-03T12:40:35.121Z,51.84
2018-06-03T12:41:29.202Z,51.77
2018-06-03T12:43:21.388Z,51.48
2018-06-03T12:46:20.970Z,50.24
2018-06-03T12:47:17.108Z,49.71
2018-06-03T12:49:11.910Z,50.36
2018-06-03T12:50:11.152Z,49.78
2018-06-03T12:51:12.597Z,50.12
2018-06-03T12:52:12.259Z,51.55
2018-06-03T12:53:18.896Z,51.75
2018-06-03T12:54:10.916Z,53.25
2018-06-03T12:55:11.326Z,53.11
2018-06-03T12:56:19.614Z,51.61
2018-06-03T12:57:11.705Z,49.97
2018-06-03T12:58:11.665Z,50.36
2018-06-03T12:59:11.953Z,49.90
2018-06-03T13:00:39.363Z,48.85
2018-06-03T13:01:19.374Z,49.34
2018-06-03T13:02:11.897Z,48.27
2018-06-03T13:03:11.525Z,47.51
2018-06-03T13:05:06.754Z,47.41
2018-06-03T13:07:20.078Z,45.78
2018-06-03T13:08:20.420Z,44.94
2018-06-03T13:10:15.162Z,43.15
2018-06-03T13:11:15.259Z,42.97
2018-06-03T13:13:09.719Z,43.85
2018-06-03T13:14:11.677Z,46.14
2018-06-03T13:15:10.261Z,47.00
2018-06-03T13:16:10.302Z,47.29
2018-06-03T13:17:10.232Z,48.07
2018-06-03T13:18:09.824Z,49.58
2018-06-03T13:19:16.532Z,48.05
2018-06-03T13:20:10.326Z,49.10
2018-06-03T13:21:13.417Z,47.97
2018-06-03T13:22:10.959Z,45.80
2018-06-03T13:23:12.334Z,44.67
2018-06-03T13:24:11.077Z,44.73
2018-06-03T13:25:24.461Z,44.57
2018-06-03T13:26:09.979Z,44.18
2018-06-03T13:27:14.439Z,42.32
2018-06-03T13:28:10.470Z,41.89
2018-06-03T13:29:10.972Z,40.11
2018-06-03T13:30:38.236Z,40.35
2018-06-03T13:31:11.992Z,41.68
2018-06-03T13:32:25.019Z,42.21
2018-06-03T13:33:13.042Z,42.50
2018-06-03T13:34:12.445Z,42.89
2018-06-03T13:35:13.363Z,42.79
2018-06-03T13:36:18.153Z,42.61
2018-06-03T13:37:12.947Z,39.80
2018-06-03T13:38:37.898Z,38.39
2018-06-03T13:39:17.060Z,39.53
2018-06-03T13:40:15.816Z,41.33
2018-06-03T13:41:10.276Z,41.27
2018-06-03T13:42:10.688Z,42.61
2018-06-03T13:43:10.230Z,42.52